sensor_id;sensor_type;location;lat;lon;timestamp;pressure;altitude;pressure_sealevel;temperature;humidity
11077;BME280;5591;42.626;23.380;2024-03-06T03:10:41;93917.38;;;6.63;100.00
11077;BME280;5591;42.626;23.380;2024-03-06T03:13:08;93929.97;;;6.51;100.00
11077;BME280;5591;42.626;23.380;2024-03-06T03:15:34;93934.16;;;6.60;100.00
11077;BME280;5591;42.626;23.380;2024-03-06T03:18:01;93945.09;;;6.56;100.00
11077;BME280;5591;42.626;23.380;2024-03-06T03:20:28;93934.00;;;6.62;100.00
11077;BME280;5591;42.626;23.380;2024-03-06T03:22:55;93932.56;;;6.51;100.00
11077;BME280;5591;42.626;23.380;2024-03-06T03:25:21;93940.44;;;6.74;100.00
11077;BME280;5591;42.626;23.380;2024-03-06T03:27:49;93939.59;;;6.51;100.00
11077;BME280;5591;42.626;23.380;2024-03-06T03:30:17;93934.31;;;6.59;100.00
11077;BME280;5591;42.626;23.380;2024-03-06T03:32:47;93930.19;;;6.72;100.00
11077;BME280;5591;42.626;23.380;2024-03-06T03:35:13;93938.03;;;6.64;100.00
11077;BME280;5591;42.626;23.380;2024-03-06T03:37:40;93940.91;;;6.77;100.00
11077;BME280;5591;42.626;23.380;2024-03-06T03:40:09;93941.13;;;6.68;100.00
11077;BME280;5591;42.626;23.380;2024-03-06T03:42:36;93937.13;;;6.80;100.00
11077;BME280;5591;42.626;23.380;2024-03-06T03:45:05;93949.13;;;6.89;100.00
11077;BME280;5591;42.626;23.380;2024-03-06T03:47:32;93948.22;;;6.82;100.00
11077;BME280;5591;42.626;23.380;2024-03-06T03:49:59;93948.50;;;6.87;100.00
11077;BME280;5591;42.626;23.380;2024-03-06T03:52:25;93946.34;;;6.68;100.00
11077;BME280;5591;42.626;23.380;2024-03-06T03:54:52;93955.19;;;6.59;100.00
11077;BME280;5591;42.626;23.380;2024-03-06T03:57:19;93953.47;;;6.74;100.00
11077;BME280;5591;42.626;23.380;2024-03-06T03:59:45;93958.50;;;6.75;100.00
11077;BME280;5591;42.626;23.380;2024-03-06T04:02:13;93957.78;;;6.59;100.00
11077;BME280;5591;42.626;23.380;2024-03-06T04:04:40;93965.88;;;6.33;100.00
11077;BME280;5591;42.626;23.380;2024-03-06T04:07:07;93964.47;;;6.23;100.00
11077;BME280;5591;42.626;23.380;2024-03-06T04:09:34;93963.50;;;6.24;100.00
11077;BME280;5591;42.626;23.380;2024-03-06T04:12:01;93958.22;;;6.40;100.00
11077;BME280;5591;42.626;23.380;2024-03-06T04:14:28;93974.41;;;6.58;100.00
11077;BME280;5591;42.626;23.380;2024-03-06T04:16:55;93969.97;;;6.28;100.00
11077;BME280;5591;42.626;23.380;2024-03-06T04:19:23;93970.13;;;6.34;100.00
11077;BME280;5591;42.626;23.380;2024-03-06T04:21:50;93982.94;;;6.52;100.00
11077;BME280;5591;42.626;23.380;2024-03-06T04:24:17;93981.94;;;6.53;100.00
11077;BME280;5591;42.626;23.380;2024-03-06T04:26:43;93977.22;;;6.48;100.00
11077;BME280;5591;42.626;23.380;2024-03-06T04:29:10;93984.56;;;6.45;100.00
11077;BME280;5591;42.626;23.380;2024-03-06T04:31:37;93984.53;;;6.61;100.00
11077;BME280;5591;42.626;23.380;2024-03-06T04:34:03;93984.97;;;6.64;100.00
11077;BME280;5591;42.626;23.380;2024-03-06T04:36:32;93977.59;;;6.76;100.00
11077;BME280;5591;42.626;23.380;2024-03-06T04:38:58;93894.13;;;6.23;100.00
11077;BME280;5591;42.626;23.380;2024-03-06T04:41:25;93971.47;;;6.91;100.00
11077;BME280;5591;42.626;23.380;2024-03-06T04:43:52;93981.94;;;6.83;100.00
11077;BME280;5591;42.626;23.380;2024-03-06T04:46:18;93976.44;;;6.78;100.00
11077;BME280;5591;42.626;23.380;2024-03-06T04:48:45;93986.00;;;6.86;100.00
11077;BME280;5591;42.626;23.380;2024-03-06T04:51:12;93985.66;;;6.89;100.00
11077;BME280;5591;42.626;23.380;2024-03-06T04:53:40;93996.91;;;6.89;100.00
11077;BME280;5591;42.626;23.380;2024-03-06T04:56:08;93991.84;;;6.88;100.00
11077;BME280;5591;42.626;23.380;2024-03-06T04:58:34;93999.31;;;6.91;100.00
11077;BME280;5591;42.626;23.380;2024-03-06T05:01:01;94004.03;;;6.95;100.00
11077;BME280;5591;42.626;23.380;2024-03-06T05:03:29;93994.59;;;6.94;100.00
11077;BME280;5591;42.626;23.380;2024-03-06T05:05:55;94005.84;;;6.95;100.00
11077;BME280;5591;42.626;23.380;2024-03-06T05:08:22;94014.13;;;6.98;100.00
11077;BME280;5591;42.626;23.380;2024-03-06T05:10:50;94006.34;;;7.13;100.00
11077;BME280;5591;42.626;23.380;2024-03-06T05:13:17;94012.34;;;7.21;100.00
11077;BME280;5591;42.626;23.380;2024-03-06T05:15:44;94007.72;;;7.31;100.00
11077;BME280;5591;42.626;23.380;2024-03-06T05:18:11;94007.88;;;7.29;100.00
11077;BME280;5591;42.626;23.380;2024-03-06T05:20:37;94011.75;;;7.56;100.00
11077;BME280;5591;42.626;23.380;2024-03-06T05:23:04;94008.78;;;7.81;100.00
11077;BME280;5591;42.626;23.380;2024-03-06T05:25:31;94011.44;;;7.96;100.00
11077;BME280;5591;42.626;23.380;2024-03-06T05:27:59;94003.16;;;8.07;100.00
11077;BME280;5591;42.626;23.380;2024-03-06T05:30:26;94002.41;;;8.13;100.00
11077;BME280;5591;42.626;23.380;2024-03-06T05:32:54;94001.84;;;8.25;100.00
11077;BME280;5591;42.626;23.380;2024-03-06T05:35:21;94017.78;;;8.45;100.00
11077;BME280;5591;42.626;23.380;2024-03-06T05:37:47;94019.69;;;8.65;100.00
11077;BME280;5591;42.626;23.380;2024-03-06T05:40:14;94028.44;;;8.58;100.00
11077;BME280;5591;42.626;23.380;2024-03-06T05:42:41;94037.78;;;8.67;100.00
11077;BME280;5591;42.626;23.380;2024-03-06T05:45:10;94039.16;;;8.77;100.00
11077;BME280;5591;42.626;23.380;2024-03-06T05:47:37;94031.94;;;8.79;100.00
11077;BME280;5591;42.626;23.380;2024-03-06T05:50:05;94040.59;;;8.94;100.00
11077;BME280;5591;42.626;23.380;2024-03-06T05:52:31;94061.44;;;8.73;100.00
11077;BME280;5591;42.626;23.380;2024-03-06T05:54:59;94059.63;;;8.88;100.00
11077;BME280;5591;42.626;23.380;2024-03-06T05:57:26;94057.53;;;9.13;100.00
11077;BME280;5591;42.626;23.380;2024-03-06T05:59:52;94065.03;;;9.01;100.00
11077;BME280;5591;42.626;23.380;2024-03-06T06:02:21;94068.13;;;9.26;100.00
11077;BME280;5591;42.626;23.380;2024-03-06T06:04:48;94069.63;;;8.99;100.00
11077;BME280;5591;42.626;23.380;2024-03-06T06:07:14;93968.47;;;9.06;100.00
11077;BME280;5591;42.626;23.380;2024-03-06T06:09:41;94071.09;;;9.79;100.00
11077;BME280;5591;42.626;23.380;2024-03-06T06:12:08;94067.03;;;9.70;100.00
11077;BME280;5591;42.626;23.380;2024-03-06T06:14:35;94079.97;;;9.99;100.00
11077;BME280;5591;42.626;23.380;2024-03-06T06:17:02;94081.50;;;10.08;100.00
11077;BME280;5591;42.626;23.380;2024-03-06T06:19:30;94072.59;;;10.30;100.00
11077;BME280;5591;42.626;23.380;2024-03-06T06:21:57;94079.31;;;9.90;100.00
11077;BME280;5591;42.626;23.380;2024-03-06T06:24:25;94082.75;;;10.12;100.00
11077;BME280;5591;42.626;23.380;2024-03-06T06:26:51;94081.19;;;9.96;100.00
11077;BME280;5591;42.626;23.380;2024-03-06T06:29:18;94076.31;;;10.14;100.00
11077;BME280;5591;42.626;23.380;2024-03-06T06:31:45;94084.09;;;10.29;100.00
11077;BME280;5591;42.626;23.380;2024-03-06T06:34:11;94087.50;;;10.50;100.00
11077;BME280;5591;42.626;23.380;2024-03-06T06:36:45;94089.56;;;10.55;100.00
11077;BME280;5591;42.626;23.380;2024-03-06T06:39:12;94084.63;;;10.73;100.00
11077;BME280;5591;42.626;23.380;2024-03-06T06:41:39;94092.84;;;10.63;100.00
11077;BME280;5591;42.626;23.380;2024-03-06T06:44:05;94053.75;;;10.47;100.00
11077;BME280;5591;42.626;23.380;2024-03-06T06:46:32;94085.69;;;10.85;100.00
11077;BME280;5591;42.626;23.380;2024-03-06T06:48:59;94087.00;;;11.02;100.00
11077;BME280;5591;42.626;23.380;2024-03-06T06:51:25;94098.03;;;11.25;100.00
11077;BME280;5591;42.626;23.380;2024-03-06T06:53:53;94091.66;;;11.00;100.00
11077;BME280;5591;42.626;23.380;2024-03-06T06:56:20;94097.03;;;10.58;100.00
11077;BME280;5591;42.626;23.380;2024-03-06T06:58:49;94092.75;;;10.78;100.00
11077;BME280;5591;42.626;23.380;2024-03-06T07:01:16;94104.53;;;10.95;100.00
11077;BME280;5591;42.626;23.380;2024-03-06T07:03:43;94103.66;;;10.81;100.00
11077;BME280;5591;42.626;23.380;2024-03-06T07:06:10;94095.06;;;11.00;100.00
11077;BME280;5591;42.626;23.380;2024-03-06T07:08:37;94100.47;;;10.86;100.00
11077;BME280;5591;42.626;23.380;2024-03-06T07:11:05;94097.22;;;10.90;100.00
11077;BME280;5591;42.626;23.380;2024-03-06T07:13:32;94094.69;;;10.97;100.00
11077;BME280;5591;42.626;23.380;2024-03-06T07:15:59;94094.97;;;10.81;100.00
11077;BME280;5591;42.626;23.380;2024-03-06T07:18:25;94092.00;;;11.31;100.00
11077;BME280;5591;42.626;23.380;2024-03-06T07:20:52;94064.94;;;11.37;100.00
11077;BME280;5591;42.626;23.380;2024-03-06T07:23:19;94093.69;;;11.51;100.00
11077;BME280;5591;42.626;23.380;2024-03-06T07:25:45;94093.06;;;11.43;100.00
11077;BME280;5591;42.626;23.380;2024-03-06T07:28:13;94076.22;;;11.78;100.00
11077;BME280;5591;42.626;23.380;2024-03-06T07:30:40;94083.72;;;11.87;100.00
11077;BME280;5591;42.626;23.380;2024-03-06T07:33:07;94094.44;;;11.79;100.00
11077;BME280;5591;42.626;23.380;2024-03-06T07:35:34;94091.25;;;12.29;100.00
11077;BME280;5591;42.626;23.380;2024-03-06T07:38:01;94102.19;;;12.20;100.00
11077;BME280;5591;42.626;23.380;2024-03-06T07:40:29;94097.13;;;12.44;99.86
11077;BME280;5591;42.626;23.380;2024-03-06T07:42:56;94093.25;;;12.98;96.63
11077;BME280;5591;42.626;23.380;2024-03-06T07:45:24;94098.50;;;12.92;93.83
11077;BME280;5591;42.626;23.380;2024-03-06T07:47:51;94091.06;;;12.63;95.75
11077;BME280;5591;42.626;23.380;2024-03-06T07:50:18;94116.09;;;13.24;92.92
11077;BME280;5591;42.626;23.380;2024-03-06T07:52:45;94095.84;;;13.24;90.50
11077;BME280;5591;42.626;23.380;2024-03-06T07:55:12;94005.50;;;13.04;90.18
11077;BME280;5591;42.626;23.380;2024-03-06T07:57:38;94089.53;;;13.76;89.54
11077;BME280;5591;42.626;23.380;2024-03-06T08:00:06;94084.84;;;14.15;87.05
11077;BME280;5591;42.626;23.380;2024-03-06T08:02:41;94098.56;;;13.55;86.26
11077;BME280;5591;42.626;23.380;2024-03-06T08:05:10;94091.28;;;13.95;85.98
11077;BME280;5591;42.626;23.380;2024-03-06T08:07:37;94098.69;;;14.11;84.87
11077;BME280;5591;42.626;23.380;2024-03-06T08:10:08;94105.09;;;14.28;83.21
11077;BME280;5591;42.626;23.380;2024-03-06T08:12:34;94098.03;;;13.84;85.50
11077;BME280;5591;42.626;23.380;2024-03-06T08:15:01;94093.44;;;13.73;87.39
11077;BME280;5591;42.626;23.380;2024-03-06T08:17:28;94087.81;;;13.94;86.12
11077;BME280;5591;42.626;23.380;2024-03-06T08:19:56;94091.75;;;13.85;86.46
11077;BME280;5591;42.626;23.380;2024-03-06T08:22:23;94102.59;;;13.64;86.51
11077;BME280;5591;42.626;23.380;2024-03-06T08:24:49;94001.53;;;13.33;86.36
11077;BME280;5591;42.626;23.380;2024-03-06T08:27:16;94098.78;;;14.29;83.50
11077;BME280;5591;42.626;23.380;2024-03-06T08:29:42;94093.22;;;14.68;81.92
11077;BME280;5591;42.626;23.380;2024-03-06T08:32:09;94098.72;;;14.04;84.30
11077;BME280;5591;42.626;23.380;2024-03-06T08:34:36;94092.16;;;14.20;83.20
11077;BME280;5591;42.626;23.380;2024-03-06T08:37:04;94096.38;;;13.39;89.26
11077;BME280;5591;42.626;23.380;2024-03-06T08:39:31;94092.53;;;13.42;89.04
11077;BME280;5591;42.626;23.380;2024-03-06T08:41:58;94093.19;;;14.12;85.08
11077;BME280;5591;42.626;23.380;2024-03-06T08:44:25;94093.03;;;14.07;84.65
11077;BME280;5591;42.626;23.380;2024-03-06T08:46:53;94101.63;;;14.58;81.72
11077;BME280;5591;42.626;23.380;2024-03-06T08:49:20;94100.25;;;14.80;80.18
11077;BME280;5591;42.626;23.380;2024-03-06T08:51:46;94101.16;;;14.92;79.66
11077;BME280;5591;42.626;23.380;2024-03-06T08:54:14;94093.47;;;15.08;78.83
11077;BME280;5591;42.626;23.380;2024-03-06T08:56:43;94092.13;;;14.75;78.76
11077;BME280;5591;42.626;23.380;2024-03-06T08:59:11;94099.34;;;13.69;80.48
11077;BME280;5591;42.626;23.380;2024-03-06T09:01:38;94111.31;;;12.43;90.93
11077;BME280;5591;42.626;23.380;2024-03-06T09:04:05;94100.34;;;12.91;89.93
11077;BME280;5591;42.626;23.380;2024-03-06T09:06:32;94099.31;;;13.75;87.12
11077;BME280;5591;42.626;23.380;2024-03-06T09:08:59;94087.34;;;14.41;81.14
11077;BME280;5591;42.626;23.380;2024-03-06T09:11:27;94101.50;;;14.95;77.52
11077;BME280;5591;42.626;23.380;2024-03-06T09:13:54;94102.53;;;14.94;76.83
11077;BME280;5591;42.626;23.380;2024-03-06T09:16:20;94100.13;;;15.11;76.47
11077;BME280;5591;42.626;23.380;2024-03-06T09:18:47;94100.59;;;15.26;75.00
11077;BME280;5591;42.626;23.380;2024-03-06T09:21:13;94111.75;;;15.28;73.43
11077;BME280;5591;42.626;23.380;2024-03-06T09:23:40;94097.25;;;15.55;72.27
11077;BME280;5591;42.626;23.380;2024-03-06T09:26:07;94105.50;;;15.65;71.87
11077;BME280;5591;42.626;23.380;2024-03-06T09:28:35;94101.63;;;13.96;76.49
11077;BME280;5591;42.626;23.380;2024-03-06T09:31:02;94084.78;;;13.53;79.82
11077;BME280;5591;42.626;23.380;2024-03-06T09:33:28;94098.78;;;14.84;75.91
11077;BME280;5591;42.626;23.380;2024-03-06T09:35:55;94094.44;;;15.32;73.45
11077;BME280;5591;42.626;23.380;2024-03-06T09:38:22;94089.94;;;16.16;70.61
11077;BME280;5591;42.626;23.380;2024-03-06T09:40:49;94096.94;;;15.63;69.94
11077;BME280;5591;42.626;23.380;2024-03-06T09:43:16;94094.09;;;15.64;69.15
11077;BME280;5591;42.626;23.380;2024-03-06T09:45:48;94090.75;;;14.48;72.71
11077;BME280;5591;42.626;23.380;2024-03-06T09:48:18;94087.56;;;14.89;71.94
11077;BME280;5591;42.626;23.380;2024-03-06T09:50:49;94082.91;;;16.10;69.11
11077;BME280;5591;42.626;23.380;2024-03-06T09:53:16;94080.50;;;16.49;66.51
11077;BME280;5591;42.626;23.380;2024-03-06T09:55:46;94093.63;;;15.85;65.77
11077;BME280;5591;42.626;23.380;2024-03-06T09:58:13;94086.97;;;14.38;68.26
11077;BME280;5591;42.626;23.380;2024-03-06T10:00:39;94087.34;;;15.50;66.97
11077;BME280;5591;42.626;23.380;2024-03-06T10:03:07;94084.31;;;15.65;66.72
11077;BME280;5591;42.626;23.380;2024-03-06T10:05:34;94082.47;;;15.29;67.21
11077;BME280;5591;42.626;23.380;2024-03-06T10:08:01;94080.66;;;15.05;66.73
11077;BME280;5591;42.626;23.380;2024-03-06T10:10:29;94066.03;;;15.93;64.35
11077;BME280;5591;42.626;23.380;2024-03-06T10:12:56;94070.16;;;16.71;61.73
11077;BME280;5591;42.626;23.380;2024-03-06T10:15:25;94060.28;;;16.25;62.18
11077;BME280;5591;42.626;23.380;2024-03-06T10:18:11;94062.13;;;16.89;61.28
11077;BME280;5591;42.626;23.380;2024-03-06T10:20:38;94055.91;;;16.83;60.30
11077;BME280;5591;42.626;23.380;2024-03-06T10:23:05;94047.91;;;17.29;59.85
11077;BME280;5591;42.626;23.380;2024-03-06T10:25:33;94063.41;;;17.09;59.09
11077;BME280;5591;42.626;23.380;2024-03-06T10:28:07;94104.22;;;16.15;60.35
11077;BME280;5591;42.626;23.380;2024-03-06T10:30:35;94060.69;;;16.11;61.40
11077;BME280;5591;42.626;23.380;2024-03-06T10:33:03;94055.66;;;17.19;59.67
11077;BME280;5591;42.626;23.380;2024-03-06T10:35:32;94042.34;;;17.65;57.72
11077;BME280;5591;42.626;23.380;2024-03-06T10:38:00;94045.63;;;16.75;57.44
11077;BME280;5591;42.626;23.380;2024-03-06T10:40:27;94052.75;;;16.11;60.32
11077;BME280;5591;42.626;23.380;2024-03-06T10:42:57;94033.09;;;16.94;58.02
11077;BME280;5591;42.626;23.380;2024-03-06T10:45:34;94031.09;;;17.74;56.67
11077;BME280;5591;42.626;23.380;2024-03-06T10:48:07;94031.91;;;17.36;56.13
11077;BME280;5591;42.626;23.380;2024-03-06T10:50:35;94014.31;;;17.85;55.32
11077;BME280;5591;42.626;23.380;2024-03-06T10:53:03;94012.16;;;17.82;55.16
11077;BME280;5591;42.626;23.380;2024-03-06T10:55:31;94014.00;;;17.43;54.98
11077;BME280;5591;42.626;23.380;2024-03-06T10:58:00;94012.19;;;17.99;54.48
11077;BME280;5591;42.626;23.380;2024-03-06T11:00:27;94007.72;;;17.60;54.34
11077;BME280;5591;42.626;23.380;2024-03-06T11:02:55;94005.25;;;17.19;54.06
11077;BME280;5591;42.626;23.380;2024-03-06T11:05:22;94002.66;;;17.59;53.69
11077;BME280;5591;42.626;23.380;2024-03-06T11:07:50;94003.13;;;16.70;54.33
11077;BME280;5591;42.626;23.380;2024-03-06T11:10:30;93994.94;;;17.57;53.12
11077;BME280;5591;42.626;23.380;2024-03-06T11:12:56;93988.59;;;18.30;52.33
11077;BME280;5591;42.626;23.380;2024-03-06T11:15:24;93976.22;;;18.52;51.04
11077;BME280;5591;42.626;23.380;2024-03-06T11:17:51;93977.34;;;18.56;49.84
11077;BME280;5591;42.626;23.380;2024-03-06T11:20:20;93970.00;;;17.86;50.77
11077;BME280;5591;42.626;23.380;2024-03-06T11:23:09;93978.72;;;18.42;50.18
11077;BME280;5591;42.626;23.380;2024-03-06T11:25:59;93972.91;;;19.38;48.99
11077;BME280;5591;42.626;23.380;2024-03-06T11:28:29;93996.13;;;19.85;47.93
11077;BME280;5591;42.626;23.380;2024-03-06T11:30:57;93956.66;;;20.35;46.42
11077;BME280;5591;42.626;23.380;2024-03-06T11:33:28;93957.38;;;20.26;46.21
11077;BME280;5591;42.626;23.380;2024-03-06T11:36:18;93876.91;;;19.44;46.60
11077;BME280;5591;42.626;23.380;2024-03-06T11:38:55;93948.44;;;20.41;46.84
11077;BME280;5591;42.626;23.380;2024-03-06T11:41:24;93944.88;;;21.50;44.34
11077;BME280;5591;42.626;23.380;2024-03-06T11:43:51;93950.75;;;22.69;42.67
11077;BME280;5591;42.626;23.380;2024-03-06T11:46:19;93942.56;;;23.48;41.51
11077;BME280;5591;42.626;23.380;2024-03-06T11:48:53;93931.78;;;24.89;39.29
11077;BME280;5591;42.626;23.380;2024-03-06T11:51:21;93931.63;;;25.32;37.21
11077;BME280;5591;42.626;23.380;2024-03-06T11:53:51;93937.28;;;25.54;36.85
11077;BME280;5591;42.626;23.380;2024-03-06T11:56:19;93920.06;;;26.57;35.54
11077;BME280;5591;42.626;23.380;2024-03-06T11:58:46;93930.31;;;23.27;37.47
11077;BME280;5591;42.626;23.380;2024-03-06T12:01:13;93929.56;;;21.36;40.29
11077;BME280;5591;42.626;23.380;2024-03-06T12:03:41;93942.09;;;19.90;42.97
11077;BME280;5591;42.626;23.380;2024-03-06T12:06:09;93925.56;;;22.30;39.99
11077;BME280;5591;42.626;23.380;2024-03-06T12:08:35;93921.56;;;24.62;37.28
11077;BME280;5591;42.626;23.380;2024-03-06T12:11:03;93909.50;;;22.05;39.15
11077;BME280;5591;42.626;23.380;2024-03-06T12:13:32;93926.63;;;22.34;39.97
11077;BME280;5591;42.626;23.380;2024-03-06T12:16:04;93919.72;;;22.68;39.42
11077;BME280;5591;42.626;23.380;2024-03-06T12:18:30;93919.38;;;23.87;37.55
11077;BME280;5591;42.626;23.380;2024-03-06T12:21:00;93834.56;;;23.53;37.14
11077;BME280;5591;42.626;23.380;2024-03-06T12:23:28;93915.91;;;23.13;38.09
11077;BME280;5591;42.626;23.380;2024-03-06T12:26:03;93914.63;;;22.46;38.33
11077;BME280;5591;42.626;23.380;2024-03-06T12:28:29;93912.72;;;22.92;38.34
11077;BME280;5591;42.626;23.380;2024-03-06T12:30:58;93910.81;;;23.85;36.96
11077;BME280;5591;42.626;23.380;2024-03-06T12:33:28;93908.38;;;24.27;36.56
11077;BME280;5591;42.626;23.380;2024-03-06T12:36:05;93897.66;;;25.88;34.98
11077;BME280;5591;42.626;23.380;2024-03-06T12:38:36;93887.91;;;27.52;33.59
11077;BME280;5591;42.626;23.380;2024-03-06T12:41:03;93886.22;;;28.18;32.22
11077;BME280;5591;42.626;23.380;2024-03-06T12:43:31;93813.19;;;28.01;31.46
11077;BME280;5591;42.626;23.380;2024-03-06T12:46:01;93892.69;;;26.82;32.70
11077;BME280;5591;42.626;23.380;2024-03-06T12:48:28;93893.50;;;24.45;34.85
11077;BME280;5591;42.626;23.380;2024-03-06T12:50:55;93895.53;;;23.76;35.72
11077;BME280;5591;42.626;23.380;2024-03-06T12:53:30;93893.50;;;24.45;35.56
11077;BME280;5591;42.626;23.380;2024-03-06T12:55:57;93905.22;;;22.09;37.99
11077;BME280;5591;42.626;23.380;2024-03-06T12:58:24;93893.94;;;21.77;39.44
11077;BME280;5591;42.626;23.380;2024-03-06T13:00:50;93896.09;;;21.80;41.05
11077;BME280;5591;42.626;23.380;2024-03-06T13:03:19;93894.91;;;20.89;43.26
11077;BME280;5591;42.626;23.380;2024-03-06T13:05:45;93904.94;;;20.72;43.98
11077;BME280;5591;42.626;23.380;2024-03-06T13:08:12;93895.41;;;20.81;44.02
11077;BME280;5591;42.626;23.380;2024-03-06T13:10:40;93904.19;;;19.83;45.37
11077;BME280;5591;42.626;23.380;2024-03-06T13:13:07;93912.06;;;19.46;46.11
11077;BME280;5591;42.626;23.380;2024-03-06T13:15:34;93914.31;;;19.33;47.35
11077;BME280;5591;42.626;23.380;2024-03-06T13:18:02;93917.66;;;19.45;48.03
11077;BME280;5591;42.626;23.380;2024-03-06T13:20:31;93936.09;;;19.30;47.77
11077;BME280;5591;42.626;23.380;2024-03-06T13:22:57;93910.13;;;19.42;48.22
11077;BME280;5591;42.626;23.380;2024-03-06T13:25:24;93917.59;;;19.18;48.60
11077;BME280;5591;42.626;23.380;2024-03-06T13:27:51;93911.91;;;19.31;49.05
11077;BME280;5591;42.626;23.380;2024-03-06T13:30:19;93915.25;;;19.05;48.95
11077;BME280;5591;42.626;23.380;2024-03-06T13:32:46;93915.66;;;19.35;48.53
11077;BME280;5591;42.626;23.380;2024-03-06T13:35:13;93915.56;;;19.73;47.77
11077;BME280;5591;42.626;23.380;2024-03-06T13:37:41;93915.59;;;19.78;47.46
11077;BME280;5591;42.626;23.380;2024-03-06T13:40:10;93916.03;;;19.44;47.28
11077;BME280;5591;42.626;23.380;2024-03-06T13:42:38;93911.50;;;20.24;46.28
11077;BME280;5591;42.626;23.380;2024-03-06T13:45:06;93897.88;;;20.56;45.40
11077;BME280;5591;42.626;23.380;2024-03-06T13:47:37;93908.91;;;20.02;46.15
11077;BME280;5591;42.626;23.380;2024-03-06T13:50:05;93887.13;;;19.31;46.63
11077;BME280;5591;42.626;23.380;2024-03-06T13:52:33;93905.81;;;19.36;46.95
11077;BME280;5591;42.626;23.380;2024-03-06T13:55:02;93907.97;;;18.25;48.06
11077;BME280;5591;42.626;23.380;2024-03-06T13:57:30;93916.63;;;17.87;49.33
11077;BME280;5591;42.626;23.380;2024-03-06T13:59:59;93901.78;;;18.36;48.51
11077;BME280;5591;42.626;23.380;2024-03-06T14:02:25;93911.25;;;18.65;48.38
11077;BME280;5591;42.626;23.380;2024-03-06T14:04:52;93912.09;;;18.49;48.60
11077;BME280;5591;42.626;23.380;2024-03-06T14:07:19;93909.88;;;18.62;48.84
11077;BME280;5591;42.626;23.380;2024-03-06T14:09:45;93909.31;;;18.98;48.01
11077;BME280;5591;42.626;23.380;2024-03-06T14:12:13;93909.78;;;19.12;47.36
11077;BME280;5591;42.626;23.380;2024-03-06T14:14:40;93911.72;;;19.00;47.88
11077;BME280;5591;42.626;23.380;2024-03-06T14:17:07;93897.56;;;19.16;47.39
11077;BME280;5591;42.626;23.380;2024-03-06T14:19:34;93900.94;;;19.28;46.96
11077;BME280;5591;42.626;23.380;2024-03-06T14:22:01;93896.72;;;19.10;47.01
11077;BME280;5591;42.626;23.380;2024-03-06T14:24:27;93904.38;;;19.07;47.19
11077;BME280;5591;42.626;23.380;2024-03-06T14:26:53;93896.53;;;18.95;46.97
11077;BME280;5591;42.626;23.380;2024-03-06T14:29:21;93888.34;;;18.80;47.33
11077;BME280;5591;42.626;23.380;2024-03-06T14:31:48;93897.22;;;18.31;48.31
11077;BME280;5591;42.626;23.380;2024-03-06T14:34:15;93907.72;;;18.26;48.69
11077;BME280;5591;42.626;23.380;2024-03-06T14:36:41;93905.41;;;17.53;49.82
11077;BME280;5591;42.626;23.380;2024-03-06T14:39:08;93902.25;;;17.83;49.96
11077;BME280;5591;42.626;23.380;2024-03-06T14:41:35;93903.38;;;17.32;50.82
11077;BME280;5591;42.626;23.380;2024-03-06T14:44:02;93808.91;;;16.58;50.87
11077;BME280;5591;42.626;23.380;2024-03-06T14:46:30;93914.25;;;15.99;52.78
11077;BME280;5591;42.626;23.380;2024-03-06T14:48:57;93915.59;;;15.19;55.93
11077;BME280;5591;42.626;23.380;2024-03-06T14:51:23;93922.16;;;15.46;56.05
11077;BME280;5591;42.626;23.380;2024-03-06T14:53:50;93924.56;;;15.77;55.83
11077;BME280;5591;42.626;23.380;2024-03-06T14:56:17;93876.84;;;15.43;59.08
11077;BME280;5591;42.626;23.380;2024-03-06T14:58:46;93930.34;;;14.80;64.54
11077;BME280;5591;42.626;23.380;2024-03-06T15:01:13;93930.78;;;14.59;67.57
11077;BME280;5591;42.626;23.380;2024-03-06T15:03:41;93938.00;;;14.03;72.99
11077;BME280;5591;42.626;23.380;2024-03-06T15:06:08;93933.91;;;14.31;73.11
11077;BME280;5591;42.626;23.380;2024-03-06T15:08:34;93932.78;;;14.14;76.78
11077;BME280;5591;42.626;23.380;2024-03-06T15:11:01;93955.81;;;14.32;77.62
11077;BME280;5591;42.626;23.380;2024-03-06T15:13:28;93936.69;;;14.12;79.88
11077;BME280;5591;42.626;23.380;2024-03-06T15:15:55;93933.50;;;14.03;80.97
11077;BME280;5591;42.626;23.380;2024-03-06T15:18:22;93858.81;;;12.92;82.85
11077;BME280;5591;42.626;23.380;2024-03-06T15:20:50;93943.38;;;13.90;82.94
11077;BME280;5591;42.626;23.380;2024-03-06T15:23:17;93941.97;;;13.87;84.09
11077;BME280;5591;42.626;23.380;2024-03-06T15:25:44;93948.81;;;13.95;84.11
11077;BME280;5591;42.626;23.380;2024-03-06T15:28:11;93936.63;;;13.94;85.88
11077;BME280;5591;42.626;23.380;2024-03-06T15:30:37;93948.19;;;13.68;89.46
11077;BME280;5591;42.626;23.380;2024-03-06T15:33:04;93948.78;;;13.70;91.99
11077;BME280;5591;42.626;23.380;2024-03-06T15:35:32;93960.41;;;13.25;92.79
11077;BME280;5591;42.626;23.380;2024-03-06T15:38:00;93963.59;;;12.90;97.27
11077;BME280;5591;42.626;23.380;2024-03-06T15:40:27;93971.88;;;13.00;98.82
11077;BME280;5591;42.626;23.380;2024-03-06T15:42:55;93965.09;;;13.23;96.34
11077;BME280;5591;42.626;23.380;2024-03-06T15:45:22;93965.44;;;13.33;97.51
11077;BME280;5591;42.626;23.380;2024-03-06T15:47:48;93964.88;;;13.25;100.00
11077;BME280;5591;42.626;23.380;2024-03-06T15:50:15;93955.31;;;13.37;100.00
11077;BME280;5591;42.626;23.380;2024-03-06T15:52:42;93964.88;;;13.25;100.00
11077;BME280;5591;42.626;23.380;2024-03-06T15:55:10;93957.50;;;13.40;100.00
11077;BME280;5591;42.626;23.380;2024-03-06T15:57:37;93962.31;;;13.49;100.00
11077;BME280;5591;42.626;23.380;2024-03-06T16:00:06;93956.03;;;13.06;100.00
11077;BME280;5591;42.626;23.380;2024-03-06T16:02:35;93962.47;;;13.23;100.00
11077;BME280;5591;42.626;23.380;2024-03-06T16:05:02;93957.50;;;13.02;100.00
11077;BME280;5591;42.626;23.380;2024-03-06T16:07:29;93950.19;;;13.04;100.00
11077;BME280;5591;42.626;23.380;2024-03-06T16:09:57;93953.84;;;13.03;100.00
11077;BME280;5591;42.626;23.380;2024-03-06T16:12:25;93906.25;;;12.85;100.00